createdAt,value
2022-10-12T00:04:15.406Z,97.77
2022-10-12T00:09:17.085Z,97.26
2022-10-12T00:14:18.839Z,96.77
2022-10-12T00:19:20.543Z,96.80
2022-10-12T00:24:22.406Z,97.08
2022-10-12T00:29:24.455Z,96.81
2022-10-12T00:34:26.246Z,96.93
2022-10-12T00:39:27.931Z,97.31
2022-10-12T00:44:45.655Z,97.34
2022-10-12T00:50:10.368Z,97.06
2022-10-12T00:55:17.722Z,96.55
2022-10-12T01:00:20.498Z,97.14
2022-10-12T01:05:23.178Z,97.00
2022-10-12T01:10:24.849Z,97.26
2022-10-12T01:15:37.357Z,97.30
2022-10-12T01:20:57.017Z,96.60
2022-10-12T01:26:35.707Z,95.42
2022-10-12T01:31:46.873Z,95.35
2022-10-12T01:37:20.982Z,94.50
2022-10-12T01:42:34.175Z,93.21
2022-10-12T01:47:38.436Z,93.58
2022-10-12T01:52:51.022Z,93.53
2022-10-12T01:58:07.782Z,93.36
2022-10-12T02:03:34.954Z,92.48
2022-10-12T02:08:51.870Z,92.19
2022-10-12T02:14:11.185Z,92.28
2022-10-12T02:19:21.150Z,92.08
2022-10-12T02:24:23.987Z,93.40
2022-10-12T02:29:32.735Z,92.97
2022-10-12T02:34:41.420Z,93.31
2022-10-12T02:39:54.400Z,92.69
2022-10-12T02:44:58.392Z,92.65
2022-10-12T02:50:01.405Z,92.39
2022-10-12T02:55:04.561Z,92.43
2022-10-12T03:00:07.076Z,92.86
2022-10-12T03:05:09.001Z,92.79
2022-10-12T03:10:10.937Z,94.01
2022-10-12T03:15:13.103Z,93.91
2022-10-12T03:20:14.957Z,93.92
2022-10-12T03:25:17.113Z,94.05
2022-10-12T03:30:19.101Z,94.77
2022-10-12T03:35:20.729Z,94.76
2022-10-12T03:40:22.543Z,94.85
2022-10-12T03:45:24.181Z,95.31
2022-10-12T03:50:26.009Z,95.35
2022-10-12T03:55:27.937Z,94.94
2022-10-12T04:00:29.903Z,95.02
2022-10-12T04:05:32.436Z,94.66
2022-10-12T04:10:34.139Z,94.96
2022-10-12T04:15:35.922Z,95.39
2022-10-12T04:20:37.746Z,95.63
2022-10-12T04:25:39.613Z,95.35
2022-10-12T04:30:41.311Z,95.62
2022-10-12T04:35:43.151Z,95.81
2022-10-12T04:40:49.481Z,95.90
2022-10-12T04:45:58.831Z,96.55
2022-10-12T04:51:00.582Z,97.06
2022-10-12T04:56:04.302Z,97.59
2022-10-12T05:01:06.232Z,97.56
2022-10-12T05:06:08.196Z,97.57
2022-10-12T05:11:10.052Z,97.97
2022-10-12T05:16:11.828Z,98.00
2022-10-12T05:21:13.589Z,96.34
2022-10-12T05:26:15.272Z,95.01
2022-10-12T05:31:17.177Z,93.89
2022-10-12T05:36:18.926Z,92.84
2022-10-12T05:41:20.822Z,91.96
2022-10-12T05:46:22.960Z,92.73
2022-10-12T05:51:28.769Z,93.40
2022-10-12T05:56:31.088Z,93.84
2022-10-12T06:01:32.956Z,93.69
2022-10-12T06:06:34.692Z,93.58
2022-10-12T06:11:36.708Z,94.13
2022-10-12T06:16:38.519Z,94.04
2022-10-12T06:21:40.456Z,94.83
2022-10-12T06:26:42.114Z,95.20
2022-10-12T06:31:47.677Z,95.14
2022-10-12T06:36:52.685Z,95.74
2022-10-12T06:41:54.581Z,96.04
2022-10-12T06:46:56.425Z,96.45
2022-10-12T06:51:58.118Z,97.73
2022-10-12T06:56:59.798Z,97.63
2022-10-12T07:02:01.568Z,97.68
2022-10-12T07:07:03.901Z,97.36
2022-10-12T07:12:05.873Z,96.73
2022-10-12T07:17:07.529Z,96.12
2022-10-12T07:22:09.349Z,96.71
2022-10-12T07:27:11.749Z,96.62
2022-10-12T07:32:13.433Z,96.51
2022-10-12T07:37:15.653Z,96.17
2022-10-12T07:42:19.490Z,95.81
2022-10-12T07:47:21.588Z,96.18
2022-10-12T07:52:23.288Z,96.47
2022-10-12T07:57:25.277Z,96.54
2022-10-12T08:02:27.009Z,96.47
2022-10-12T08:07:28.860Z,96.46
2022-10-12T08:12:30.540Z,96.37
2022-10-12T08:17:32.222Z,96.16
2022-10-12T08:22:34.180Z,95.90
2022-10-12T08:27:38.456Z,95.99
2022-10-12T08:32:40.475Z,95.33
2022-10-12T08:37:42.291Z,95.78
2022-10-12T08:43:03.344Z,95.53
2022-10-12T08:48:13.207Z,95.60
2022-10-12T08:53:22.919Z,95.46
2022-10-12T08:58:31.952Z,94.95
2022-10-12T09:03:58.248Z,95.27
2022-10-12T09:09:27.896Z,95.30
2022-10-12T09:14:35.784Z,94.74
2022-10-12T09:19:41.091Z,94.28
2022-10-12T09:24:43.564Z,93.96
2022-10-12T09:29:49.297Z,93.62
2022-10-12T09:34:51.136Z,93.47
2022-10-12T09:39:53.834Z,92.82
2022-10-12T09:45:12.366Z,92.79
2022-10-12T09:50:36.213Z,92.30
2022-10-12T09:55:37.910Z,92.64
2022-10-12T10:00:40.281Z,92.25
2022-10-12T10:05:42.155Z,92.49
2022-10-12T10:10:51.948Z,92.13
2022-10-12T10:16:04.727Z,92.03
2022-10-12T10:21:09.033Z,91.82
2022-10-12T10:31:25.025Z,91.73
2022-10-12T10:36:27.754Z,91.34
2022-10-12T10:41:36.634Z,91.83
2022-10-12T10:46:38.406Z,91.61
2022-10-12T10:51:46.043Z,91.76
2022-10-12T10:56:50.768Z,91.86
2022-10-12T11:01:58.116Z,91.83
2022-10-12T11:07:10.382Z,91.84
2022-10-12T11:12:21.328Z,91.53
2022-10-12T11:17:37.710Z,90.73
2022-10-12T11:22:50.857Z,90.19
2022-10-12T11:27:53.856Z,90.98
2022-10-12T11:33:06.656Z,91.04
2022-10-12T11:38:31.138Z,91.47
2022-10-12T11:43:47.857Z,90.86
2022-10-12T11:48:59.438Z,90.31
2022-10-12T11:54:08.389Z,90.26
2022-10-12T11:59:29.590Z,89.77
2022-10-12T12:04:43.769Z,89.71
2022-10-12T12:09:50.275Z,89.57
2022-10-12T12:14:55.767Z,90.00
2022-10-12T12:20:02.550Z,89.71
2022-10-12T12:25:07.961Z,89.45
2022-10-12T12:30:18.574Z,89.12
2022-10-12T12:35:25.625Z,88.34
2022-10-12T12:40:28.233Z,88.00
2022-10-12T12:45:32.681Z,87.45
2022-10-12T12:50:37.359Z,87.12
2022-10-12T12:55:59.120Z,87.40
2022-10-12T13:01:24.847Z,87.12
2022-10-12T13:07:02.908Z,87.08
2022-10-12T13:12:35.988Z,86.91
2022-10-12T13:18:04.006Z,86.29
2022-10-12T13:23:11.925Z,85.58
2022-10-12T13:28:23.481Z,85.34
2022-10-12T13:33:32.739Z,85.39
2022-10-12T13:38:38.478Z,85.16
2022-10-12T13:43:52.368Z,85.15
2022-10-12T13:48:59.660Z,85.53
2022-10-12T13:54:02.948Z,85.62
2022-10-12T13:59:07.104Z,85.80
2022-10-12T14:04:12.372Z,85.62
2022-10-12T14:09:22.323Z,85.11
2022-10-12T14:14:28.593Z,85.14
2022-10-12T14:19:42.823Z,85.24
2022-10-12T14:24:44.598Z,85.50
2022-10-12T14:29:47.341Z,86.00
2022-10-12T14:34:49.538Z,85.21
2022-10-12T14:39:52.342Z,84.94
2022-10-12T14:44:54.210Z,84.83
2022-10-12T14:49:57.807Z,84.85
2022-10-12T14:55:00.129Z,84.72
2022-10-12T15:00:02.061Z,85.07
2022-10-12T15:05:03.966Z,84.90
2022-10-12T15:10:06.314Z,85.00
2022-10-12T15:15:16.273Z,85.89
2022-10-12T15:20:18.946Z,85.86
2022-10-12T15:25:22.857Z,86.20
2022-10-12T15:30:24.538Z,86.57
2022-10-12T15:35:28.957Z,86.23
2022-10-12T15:40:32.656Z,85.97
2022-10-12T15:45:37.006Z,86.30
2022-10-12T15:50:44.585Z,86.53
2022-10-12T15:55:47.098Z,86.59
2022-10-12T16:00:49.746Z,86.36
2022-10-12T16:05:51.508Z,86.44
2022-10-12T16:10:53.331Z,86.69
2022-10-12T16:15:55.045Z,86.53
2022-10-12T16:20:56.892Z,86.71
2022-10-12T16:25:59.182Z,87.11
2022-10-12T16:31:01.106Z,87.40
2022-10-12T16:36:08.664Z,87.31
2022-10-12T16:41:12.499Z,87.67
2022-10-12T16:46:14.294Z,88.23
2022-10-12T16:51:16.085Z,88.25
2022-10-12T16:56:17.832Z,88.49
2022-10-12T17:01:19.689Z,88.68
2022-10-12T17:06:21.330Z,88.68
2022-10-12T17:11:23.014Z,89.20
2022-10-12T17:16:43.276Z,89.14
2022-10-12T17:21:46.386Z,89.33
2022-10-12T17:26:48.239Z,89.62
2022-10-12T17:31:51.026Z,89.54
2022-10-12T17:36:54.375Z,89.89
2022-10-12T17:41:56.146Z,90.45
2022-10-12T17:46:58.793Z,90.60
2022-10-12T17:52:00.538Z,90.80
2022-10-12T17:57:02.215Z,91.00
2022-10-12T18:02:06.937Z,91.43
2022-10-12T18:07:11.139Z,92.14
2022-10-12T18:12:12.790Z,92.70
2022-10-12T18:17:14.624Z,92.99
2022-10-12T18:22:16.685Z,93.03
2022-10-12T18:27:18.757Z,93.21
2022-10-12T18:32:20.634Z,93.58
2022-10-12T18:37:22.427Z,94.14
2022-10-12T18:42:24.290Z,93.84
2022-10-12T18:47:26.038Z,94.40
2022-10-12T18:52:27.716Z,94.61
2022-10-12T18:57:32.138Z,94.40
2022-10-12T19:02:36.219Z,94.73
2022-10-12T19:07:38.066Z,94.46
2022-10-12T19:12:44.818Z,94.61
2022-10-12T19:17:47.485Z,94.47
2022-10-12T19:22:49.252Z,94.43
2022-10-12T19:27:50.907Z,94.27
2022-10-12T19:32:52.614Z,94.76
2022-10-12T19:37:54.499Z,94.15
2022-10-12T19:42:56.286Z,93.84
2022-10-12T19:47:57.979Z,93.93
2022-10-12T19:52:59.673Z,93.99
2022-10-12T19:58:01.610Z,94.13
2022-10-12T20:03:04.459Z,92.84
2022-10-12T20:08:06.201Z,92.29
2022-10-12T20:13:07.988Z,91.68
2022-10-12T20:18:09.701Z,91.62
2022-10-12T20:23:11.706Z,91.48
2022-10-12T20:28:14.384Z,91.49
2022-10-12T20:33:16.230Z,91.67
2022-10-12T20:38:18.490Z,91.92
2022-10-12T20:43:20.177Z,91.83
2022-10-12T20:48:22.585Z,91.19
2022-10-12T20:53:24.450Z,90.90
2022-10-12T20:58:28.058Z,90.27
2022-10-12T21:03:30.052Z,88.67
2022-10-12T21:08:32.451Z,88.51
2022-10-12T21:13:41.518Z,89.83
2022-10-12T21:18:43.450Z,88.78
2022-10-12T21:23:52.118Z,87.20
2022-10-12T21:28:54.099Z,88.26
2022-10-12T21:33:56.096Z,88.21
2022-10-12T21:38:58.089Z,88.17
2022-10-12T21:43:59.831Z,87.13
2022-10-12T21:49:02.957Z,86.79
2022-10-12T21:54:05.786Z,87.13
2022-10-12T21:59:07.526Z,87.54
2022-10-12T22:04:14.726Z,87.62
2022-10-12T22:09:19.028Z,87.45
2022-10-12T22:14:20.867Z,86.80
2022-10-12T22:19:22.749Z,86.88
2022-10-12T22:24:24.402Z,86.93
2022-10-12T22:29:26.117Z,87.19
2022-10-12T22:34:28.022Z,86.84
2022-10-12T22:39:29.771Z,85.96
2022-10-12T22:44:31.526Z,85.76
2022-10-12T22:49:33.320Z,86.56
2022-10-12T22:54:35.127Z,86.13
2022-10-12T22:59:36.774Z,85.11
2022-10-12T23:04:38.515Z,85.52
2022-10-12T23:09:41.286Z,85.89
2022-10-12T23:14:42.994Z,85.42
2022-10-12T23:19:44.746Z,85.54
2022-10-12T23:24:46.734Z,85.85
2022-10-12T23:29:48.421Z,86.15
2022-10-12T23:34:50.187Z,85.63
2022-10-12T23:39:51.862Z,86.04
2022-10-12T23:44:53.523Z,85.72
2022-10-12T23:49:55.181Z,84.71
2022-10-12T23:54:56.994Z,84.16
2022-10-12T23:59:58.855Z,85.19
